createdAt,value
2018-01-17T00:02:05.852Z,1.42
2018-01-17T00:04:36.172Z,1.58
2018-01-17T00:07:06.069Z,1.80
2018-01-17T00:09:36.616Z,1.62
2018-01-17T00:12:06.880Z,2.42
2018-01-17T00:14:36.447Z,1.65
2018-01-17T00:17:06.389Z,1.60
2018-01-17T00:19:35.174Z,1.50
2018-01-17T00:22:04.364Z,1.95
2018-01-17T00:24:33.467Z,1.60
2018-01-17T00:27:04.584Z,1.52
2018-01-17T00:29:35.299Z,1.40
2018-01-17T00:32:13.710Z,1.70
2018-01-17T00:34:44.294Z,1.40
2018-01-17T00:37:14.409Z,2.35
2018-01-17T00:39:44.359Z,1.55
2018-01-17T00:42:14.094Z,1.60
2018-01-17T00:44:44.022Z,1.55
2018-01-17T00:47:14.996Z,1.73
2018-01-17T00:49:45.645Z,1.80
2018-01-17T00:52:15.416Z,1.70
2018-01-17T00:54:47.205Z,1.95
2018-01-17T00:57:17.412Z,1.52
2018-01-17T00:59:47.318Z,2.28
2018-01-17T01:02:17.832Z,1.90
2018-01-17T01:04:48.447Z,1.55
2018-01-17T01:07:18.164Z,2.12
2018-01-17T01:09:49.222Z,1.30
2018-01-17T01:12:19.883Z,1.60
2018-01-17T01:14:49.845Z,1.20
2018-01-17T01:17:19.772Z,1.45
2018-01-17T01:19:49.475Z,1.48
2018-01-17T01:22:20.466Z,1.90
2018-01-17T01:24:50.348Z,1.33
2018-01-17T01:27:21.441Z,1.60
2018-01-17T01:29:51.123Z,1.73
2018-01-17T01:32:21.053Z,1.60
2018-01-17T01:34:51.140Z,1.20
2018-01-17T01:37:21.898Z,1.30
2018-01-17T01:39:52.904Z,1.60
2018-01-17T01:42:22.729Z,1.45
2018-01-17T01:44:52.538Z,1.50
2018-01-17T01:47:22.451Z,1.40
2018-01-17T01:49:52.321Z,1.40
2018-01-17T01:52:23.541Z,1.25
2018-01-17T01:54:53.773Z,1.20
2018-01-17T01:57:24.541Z,1.58
2018-01-17T01:59:54.206Z,1.33
2018-01-17T02:02:24.304Z,1.30
2018-01-17T02:04:57.034Z,1.30
2018-01-17T02:07:27.818Z,1.60
2018-01-17T02:09:58.873Z,1.60
2018-01-17T02:12:29.195Z,2.30
2018-01-17T02:14:58.511Z,1.65
2018-01-17T02:17:28.292Z,1.40
2018-01-17T02:19:58.097Z,1.73
2018-01-17T02:22:29.690Z,1.70
2018-01-17T02:25:02.803Z,1.30
2018-01-17T02:27:32.151Z,1.90
2018-01-17T02:30:02.160Z,1.37
2018-01-17T02:32:32.891Z,1.80
2018-01-17T02:35:03.102Z,1.33
2018-01-17T02:37:33.969Z,1.45
2018-01-17T02:40:27.907Z,1.73
2018-01-17T02:42:57.621Z,1.35
2018-01-17T02:45:27.512Z,1.95
2018-01-17T02:47:57.765Z,2.20
2018-01-17T02:50:27.734Z,1.87
2018-01-17T02:52:59.089Z,1.75
2018-01-17T02:55:29.207Z,1.95
2018-01-17T02:57:59.544Z,1.70
2018-01-17T03:00:33.450Z,1.95
2018-01-17T03:03:03.446Z,1.62
2018-01-17T03:05:33.395Z,1.42
2018-01-17T03:08:04.772Z,2.22
2018-01-17T03:10:36.505Z,1.98
2018-01-17T03:13:06.486Z,1.55
2018-01-17T03:15:36.356Z,1.73
2018-01-17T03:18:07.092Z,2.20
2018-01-17T03:20:37.684Z,2.40
2018-01-17T03:23:07.540Z,1.70
2018-01-17T03:25:38.690Z,1.87
2018-01-17T03:28:08.512Z,1.75
2018-01-17T03:30:39.202Z,1.80
2018-01-17T03:33:10.057Z,1.90
2018-01-17T03:35:39.965Z,2.20
2018-01-17T03:38:10.141Z,2.15
2018-01-17T03:40:40.268Z,2.20
2018-01-17T03:43:10.696Z,2.30
2018-01-17T03:45:39.593Z,2.22
2018-01-17T03:48:09.094Z,2.00
2018-01-17T03:50:39.279Z,1.77
2018-01-17T03:53:09.520Z,1.95
2018-01-17T03:55:39.866Z,2.10
2018-01-17T03:58:09.845Z,2.10
2018-01-17T04:00:39.695Z,2.12
2018-01-17T04:03:10.273Z,1.30
2018-01-17T04:05:40.232Z,1.40
2018-01-17T04:08:10.353Z,1.25
2018-01-17T04:10:40.223Z,1.73
2018-01-17T04:13:11.012Z,1.65
2018-01-17T04:15:40.968Z,1.75
2018-01-17T04:18:11.590Z,1.10
2018-01-17T04:20:44.708Z,1.10
2018-01-17T04:23:22.747Z,1.37
2018-01-17T04:25:52.667Z,1.10
2018-01-17T04:28:22.924Z,1.58
2018-01-17T04:30:53.245Z,1.87
2018-01-17T04:33:23.798Z,1.67
2018-01-17T04:35:53.623Z,1.65
2018-01-17T04:38:23.939Z,1.20
2018-01-17T04:40:54.274Z,1.40
2018-01-17T04:43:24.284Z,1.45
2018-01-17T04:45:54.013Z,1.20
2018-01-17T04:48:24.651Z,1.35
2018-01-17T04:50:54.637Z,1.40
2018-01-17T04:53:24.435Z,1.70
2018-01-17T04:55:54.324Z,1.55
2018-01-17T04:58:25.160Z,1.33
2018-01-17T05:00:55.115Z,1.10
2018-01-17T05:03:24.726Z,1.65
2018-01-17T05:05:55.233Z,1.30
2018-01-17T05:08:25.581Z,1.52
2018-01-17T05:10:56.718Z,1.35
2018-01-17T05:13:26.489Z,1.60
2018-01-17T05:15:57.397Z,1.20
2018-01-17T05:18:27.407Z,1.30
2018-01-17T05:20:58.079Z,1.30
2018-01-17T05:23:28.102Z,1.65
2018-01-17T05:25:58.855Z,1.65
2018-01-17T05:28:29.116Z,1.12
2018-01-17T05:30:59.956Z,1.40
2018-01-17T05:33:30.037Z,1.30
2018-01-17T05:36:00.151Z,1.23
2018-01-17T05:38:30.186Z,1.30
2018-01-17T05:41:00.431Z,1.37
2018-01-17T05:43:30.389Z,1.55
2018-01-17T05:45:59.056Z,1.40
2018-01-17T05:48:30.424Z,1.62
2018-01-17T05:51:00.680Z,1.60
2018-01-17T05:53:30.769Z,1.65
2018-01-17T05:56:01.389Z,2.30
2018-01-17T05:58:32.180Z,1.70
2018-01-17T06:01:02.935Z,1.67
2018-01-17T06:03:33.154Z,1.60
2018-01-17T06:06:04.066Z,1.65
2018-01-17T06:08:34.455Z,1.30
2018-01-17T06:11:04.485Z,1.50
2018-01-17T06:13:35.215Z,1.40
2018-01-17T06:16:05.622Z,1.30
2018-01-17T06:18:35.711Z,1.45
2018-01-17T06:21:06.305Z,1.30
2018-01-17T06:23:36.099Z,1.33
2018-01-17T06:26:07.149Z,1.65
2018-01-17T06:28:37.095Z,1.83
2018-01-17T06:31:07.265Z,1.48
2018-01-17T06:33:37.794Z,2.20
2018-01-17T06:36:08.224Z,2.17
2018-01-17T06:38:38.539Z,1.30
2018-01-17T06:41:09.201Z,1.42
2018-01-17T06:43:40.617Z,1.48
2018-01-17T06:46:11.889Z,1.35
2018-01-17T06:48:41.794Z,1.40
2018-01-17T06:51:11.969Z,1.48
2018-01-17T06:53:41.122Z,1.25
2018-01-17T06:56:12.808Z,1.50
2018-01-17T06:58:43.424Z,1.50
2018-01-17T07:01:12.913Z,1.48
2018-01-17T07:03:42.164Z,1.58
2018-01-17T07:06:12.337Z,1.42
2018-01-17T07:08:42.731Z,1.45
2018-01-17T07:11:12.596Z,1.20
2018-01-17T07:13:42.286Z,1.80
2018-01-17T07:16:12.940Z,1.58
2018-01-17T07:18:42.544Z,1.33
2018-01-17T07:21:12.049Z,1.42
2018-01-17T07:23:42.018Z,1.45
2018-01-17T07:26:11.740Z,1.50
2018-01-17T07:28:41.448Z,1.55
2018-01-17T07:31:11.321Z,1.60
2018-01-17T07:33:40.811Z,1.87
2018-01-17T07:36:09.959Z,1.80
2018-01-17T07:38:38.897Z,1.75
2018-01-17T07:41:08.025Z,1.80
2018-01-17T07:43:37.744Z,1.40
2018-01-17T07:46:07.725Z,1.42
2018-01-17T07:48:39.145Z,1.52
2018-01-17T07:51:08.476Z,2.17
2018-01-17T07:53:50.794Z,1.27
2018-01-17T07:56:20.026Z,1.40
2018-01-17T07:58:48.561Z,1.52
2018-01-17T08:01:17.578Z,1.27
2018-01-17T08:03:45.890Z,1.80
2018-01-17T08:06:22.849Z,1.40
2018-01-17T08:08:53.180Z,1.58
2018-01-17T08:11:22.380Z,1.25
2018-01-17T08:13:51.670Z,1.60
2018-01-17T08:16:20.789Z,1.20
2018-01-17T08:18:49.852Z,1.90
2018-01-17T08:21:18.774Z,2.00
2018-01-17T08:23:47.595Z,1.60
2018-01-17T08:26:18.513Z,1.67
2018-01-17T08:28:47.845Z,1.67
2018-01-17T08:31:26.174Z,1.58
2018-01-17T08:33:56.307Z,1.60
2018-01-17T08:36:27.869Z,2.05
2018-01-17T08:38:57.236Z,1.90
2018-01-17T08:41:27.471Z,1.87
2018-01-17T08:43:57.072Z,1.73
2018-01-17T08:46:39.435Z,1.45
2018-01-17T08:49:13.677Z,1.40
2018-01-17T08:51:43.708Z,1.45
2018-01-17T08:54:13.800Z,1.80
2018-01-17T08:56:49.344Z,2.40
2018-01-17T08:59:19.717Z,1.40
2018-01-17T09:01:50.512Z,1.67
2018-01-17T09:04:21.005Z,1.50
2018-01-17T09:06:50.391Z,1.73
2018-01-17T09:09:19.432Z,1.52
2018-01-17T09:11:48.922Z,1.25
2018-01-17T09:14:20.181Z,2.25
2018-01-17T09:16:57.320Z,2.30
2018-01-17T09:19:33.818Z,1.70
2018-01-17T09:22:16.741Z,1.70
2018-01-17T09:24:58.589Z,1.95
2018-01-17T09:27:29.354Z,1.62
2018-01-17T09:30:03.437Z,1.48
2018-01-17T09:32:35.239Z,1.80
2018-01-17T09:35:04.915Z,2.03
2018-01-17T09:37:34.257Z,1.70
2018-01-17T09:40:03.859Z,2.08
2018-01-17T09:42:32.861Z,1.70
2018-01-17T09:45:02.871Z,1.95
2018-01-17T09:47:32.954Z,1.30
2018-01-17T09:50:02.441Z,2.12
2018-01-17T09:52:33.138Z,2.25
2018-01-17T09:55:02.547Z,2.30
2018-01-17T09:57:32.174Z,2.08
2018-01-17T10:00:02.292Z,1.45
2018-01-17T10:02:32.096Z,2.00
2018-01-17T10:05:01.967Z,2.50
2018-01-17T10:07:30.743Z,1.90
2018-01-17T10:09:59.424Z,1.80
2018-01-17T10:12:29.108Z,2.30
2018-01-17T10:14:59.919Z,2.00
2018-01-17T10:17:28.977Z,1.60
2018-01-17T10:20:08.453Z,2.35
2018-01-17T10:22:48.331Z,1.87
2018-01-17T10:25:18.615Z,1.42
2018-01-17T10:27:47.407Z,1.80
2018-01-17T10:30:16.638Z,1.75
2018-01-17T10:32:46.574Z,1.77
2018-01-17T10:35:17.033Z,2.05
2018-01-17T10:37:46.613Z,2.00
2018-01-17T10:40:17.704Z,2.05
2018-01-17T10:42:46.690Z,1.90
2018-01-17T10:47:53.909Z,1.70
2018-01-17T10:50:25.990Z,1.90
2018-01-17T11:05:57.988Z,2.10
2018-01-17T11:08:27.634Z,1.90
2018-01-17T11:10:57.718Z,1.85
2018-01-17T11:13:28.097Z,1.65
2018-01-17T11:15:57.315Z,1.70
2018-01-17T11:18:27.231Z,1.70
2018-01-17T11:20:56.813Z,1.60
2018-01-17T11:23:25.980Z,1.55
2018-01-17T11:25:55.154Z,1.70
2018-01-17T11:28:24.771Z,1.70
2018-01-17T11:30:53.630Z,1.70
2018-01-17T11:33:22.374Z,1.70
2018-01-17T11:35:50.993Z,1.50
2018-01-17T11:38:20.598Z,1.70
2018-01-17T11:40:50.015Z,1.60
2018-01-17T11:43:19.078Z,2.00
2018-01-17T11:45:50.958Z,1.85
2018-01-17T11:48:26.006Z,1.70
2018-01-17T11:58:36.752Z,2.12
2018-01-17T12:01:06.802Z,1.92
2018-01-17T12:03:35.588Z,1.70
2018-01-17T12:06:06.613Z,1.50
2018-01-17T12:08:37.109Z,1.98
2018-01-17T12:11:07.364Z,1.80
2018-01-17T12:13:36.241Z,2.05
2018-01-17T12:16:05.904Z,2.28
2018-01-17T12:18:36.015Z,2.05
2018-01-17T12:21:05.736Z,2.40
2018-01-17T12:23:35.054Z,1.77
2018-01-17T12:26:04.629Z,2.10
2018-01-17T12:28:34.037Z,1.95
2018-01-17T12:31:03.119Z,2.08
2018-01-17T12:33:32.177Z,2.22
2018-01-17T12:36:01.379Z,1.60
2018-01-17T12:38:31.860Z,1.60
2018-01-17T12:41:00.397Z,2.25
2018-01-17T12:43:29.525Z,2.00
2018-01-17T12:45:59.429Z,1.95
2018-01-17T12:48:28.108Z,2.45
2018-01-17T12:50:57.703Z,2.03
2018-01-17T12:53:28.194Z,1.90
2018-01-17T12:55:57.374Z,2.50
2018-01-17T12:58:27.607Z,2.00
2018-01-17T13:00:57.623Z,1.80
2018-01-17T13:03:27.529Z,2.42
2018-01-17T13:05:56.119Z,1.73
2018-01-17T13:08:25.393Z,2.45
2018-01-17T13:10:54.728Z,4.82
2018-01-17T13:13:23.944Z,2.20
2018-01-17T13:15:52.970Z,2.42
2018-01-17T13:18:22.033Z,2.00
2018-01-17T13:20:51.491Z,2.15
2018-01-17T13:23:20.060Z,2.17
2018-01-17T13:25:51.229Z,2.87
2018-01-17T13:28:21.589Z,1.70
2018-01-17T13:30:50.723Z,2.20
2018-01-17T13:33:22.427Z,2.75
2018-01-17T13:35:51.736Z,2.58
2018-01-17T13:38:21.483Z,1.55
2018-01-17T13:40:52.062Z,1.95
2018-01-17T13:43:25.701Z,2.50
2018-01-17T13:45:54.783Z,2.87
2018-01-17T13:48:24.684Z,2.92
2018-01-17T13:50:54.645Z,1.92
2018-01-17T13:53:25.499Z,2.55
2018-01-17T13:55:54.708Z,2.42
2018-01-17T13:58:24.006Z,3.20
2018-01-17T14:00:54.067Z,2.85
2018-01-17T14:03:22.315Z,3.65
2018-01-17T14:06:00.857Z,2.67
2018-01-17T14:08:30.350Z,3.25
2018-01-17T14:11:00.468Z,2.85
2018-01-17T14:13:30.063Z,3.35
2018-01-17T14:16:00.255Z,3.10
2018-01-17T14:18:30.552Z,3.70
2018-01-17T14:21:06.553Z,3.30
2018-01-17T14:23:35.789Z,2.62
2018-01-17T14:26:04.261Z,2.65
2018-01-17T14:28:34.374Z,3.12
2018-01-17T14:31:03.064Z,2.58
2018-01-17T14:33:32.245Z,3.03
2018-01-17T14:36:08.695Z,3.25
2018-01-17T14:38:38.658Z,2.55
2018-01-17T14:41:07.521Z,3.42
2018-01-17T14:43:36.468Z,2.83
2018-01-17T14:46:07.756Z,3.75
2018-01-17T14:48:37.113Z,3.67
2018-01-17T14:51:05.926Z,3.25
2018-01-17T14:53:35.644Z,2.75
2018-01-17T14:56:05.148Z,2.30
2018-01-17T14:58:34.850Z,2.62
2018-01-17T15:01:11.905Z,3.00
2018-01-17T15:03:42.884Z,2.75
2018-01-17T15:06:12.803Z,3.15
2018-01-17T15:08:48.266Z,2.85
2018-01-17T15:11:16.653Z,2.75
2018-01-17T15:13:45.950Z,3.00
2018-01-17T15:16:16.974Z,4.07
2018-01-17T15:18:45.904Z,3.20
2018-01-17T15:21:15.294Z,3.05
2018-01-17T15:23:45.198Z,4.12
2018-01-17T15:26:14.388Z,3.10
2018-01-17T15:28:44.229Z,3.47
2018-01-17T15:31:13.857Z,3.80
2018-01-17T15:33:43.291Z,3.08
2018-01-17T15:36:14.632Z,3.33
2018-01-17T15:38:44.031Z,3.28
2018-01-17T15:41:14.577Z,3.40
2018-01-17T15:43:45.067Z,4.93
2018-01-17T15:46:15.250Z,3.20
2018-01-17T15:48:46.397Z,3.55
2018-01-17T15:51:16.209Z,3.20
2018-01-17T15:53:46.601Z,3.03
2018-01-17T15:56:16.746Z,2.87
2018-01-17T15:58:47.338Z,3.12
2018-01-17T16:01:20.032Z,3.45
2018-01-17T16:03:48.832Z,4.18
2018-01-17T16:06:18.192Z,2.72
2018-01-17T16:08:47.505Z,2.78
2018-01-17T16:11:19.006Z,3.10
2018-01-17T16:13:48.714Z,3.00
2018-01-17T16:16:19.863Z,3.70
2018-01-17T16:18:51.294Z,3.05
2018-01-17T16:21:20.542Z,3.35
2018-01-17T16:23:50.595Z,4.03
2018-01-17T16:26:28.805Z,2.55
2018-01-17T16:28:57.887Z,10.10
2018-01-17T16:31:33.216Z,2.87
2018-01-17T16:34:05.237Z,3.00
2018-01-17T16:36:35.198Z,3.08
2018-01-17T16:39:04.161Z,2.87
2018-01-17T16:41:32.106Z,2.20
2018-01-17T16:43:59.922Z,2.40
2018-01-17T16:46:27.819Z,3.20
2018-01-17T16:48:57.004Z,2.72
2018-01-17T16:51:24.665Z,3.87
2018-01-17T16:53:54.305Z,2.85
2018-01-17T16:56:21.910Z,2.60
2018-01-17T16:58:49.593Z,3.17
2018-01-17T17:01:17.461Z,2.70
2018-01-17T17:03:45.108Z,3.00
2018-01-17T17:06:12.759Z,3.42
2018-01-17T17:08:40.362Z,2.67
2018-01-17T17:11:08.061Z,4.65
2018-01-17T17:13:35.718Z,3.65
2018-01-17T17:16:03.612Z,3.22
2018-01-17T17:18:31.208Z,3.90
2018-01-17T17:20:59.302Z,3.60
2018-01-17T17:23:26.985Z,3.83
2018-01-17T17:25:55.352Z,2.22
2018-01-17T17:28:22.949Z,3.42
2018-01-17T17:30:51.271Z,3.97
2018-01-17T17:33:18.867Z,3.37
2018-01-17T17:35:47.256Z,3.17
2018-01-17T17:38:15.728Z,2.60
2018-01-17T17:40:43.465Z,2.95
2018-01-17T17:43:11.195Z,2.80
2018-01-17T17:45:39.302Z,2.60
2018-01-17T17:48:07.096Z,3.70
2018-01-17T17:50:34.739Z,3.37
2018-01-17T17:53:02.380Z,3.58
2018-01-17T17:55:30.107Z,3.20
2018-01-17T17:57:58.038Z,3.58
2018-01-17T18:00:25.860Z,2.90
2018-01-17T18:02:53.431Z,3.20
2018-01-17T18:05:21.034Z,3.12
2018-01-17T18:07:48.760Z,3.55
2018-01-17T18:10:16.510Z,3.97
2018-01-17T18:12:44.131Z,3.72
2018-01-17T18:15:12.560Z,3.50
2018-01-17T18:17:40.179Z,3.58
2018-01-17T18:20:09.404Z,3.87
2018-01-17T18:22:40.179Z,3.15
2018-01-17T18:25:10.487Z,3.67
2018-01-17T18:27:40.228Z,3.65
2018-01-17T18:30:10.087Z,4.12
2018-01-17T18:32:39.474Z,3.55
2018-01-17T18:35:09.107Z,3.28
2018-01-17T18:37:40.237Z,3.83
2018-01-17T18:40:10.359Z,2.78
2018-01-17T18:42:40.034Z,3.83
2018-01-17T18:45:09.056Z,3.80
2018-01-17T18:47:39.243Z,4.20
2018-01-17T18:50:12.681Z,3.50
2018-01-17T18:52:44.947Z,3.35
2018-01-17T18:55:15.512Z,2.58
2018-01-17T18:57:48.615Z,3.30
2018-01-17T19:00:18.692Z,2.78
2018-01-17T19:02:48.569Z,3.53
2018-01-17T19:05:19.450Z,3.28
2018-01-17T19:07:50.023Z,3.72
2018-01-17T19:10:20.049Z,3.75
2018-01-17T19:12:51.189Z,3.15
2018-01-17T19:15:21.196Z,4.30
2018-01-17T19:17:51.212Z,4.85
2018-01-17T19:20:21.996Z,3.37
2018-01-17T19:22:52.234Z,4.12
2018-01-17T19:25:22.343Z,4.60
2018-01-17T19:27:52.366Z,3.30
2018-01-17T19:30:22.214Z,3.55
2018-01-17T19:32:53.294Z,3.97
2018-01-17T19:35:23.116Z,3.50
2018-01-17T19:37:54.019Z,3.22
2018-01-17T19:40:24.562Z,3.00
2018-01-17T19:42:54.390Z,4.15
2018-01-17T19:45:24.930Z,5.03
2018-01-17T19:47:56.311Z,4.45
2018-01-17T19:50:26.974Z,3.53
2018-01-17T19:52:56.783Z,4.22
2018-01-17T19:55:26.880Z,4.75
2018-01-17T19:57:57.272Z,3.85
2018-01-17T20:00:27.206Z,3.47
2018-01-17T20:02:57.305Z,4.20
2018-01-17T20:05:26.078Z,3.58
2018-01-17T20:07:55.464Z,3.40
2018-01-17T20:10:26.616Z,4.20
2018-01-17T20:12:56.878Z,3.83
2018-01-17T20:15:26.619Z,3.80
2018-01-17T20:17:55.837Z,3.58
2018-01-17T20:20:25.337Z,4.43
2018-01-17T20:23:01.149Z,3.42
2018-01-17T20:25:31.425Z,4.43
2018-01-17T20:28:00.991Z,4.18
2018-01-17T20:30:30.978Z,4.10
2018-01-17T20:33:01.241Z,5.43
2018-01-17T20:35:30.619Z,5.75
2018-01-17T20:38:02.505Z,3.60
2018-01-17T20:40:33.488Z,3.67
2018-01-17T20:43:03.643Z,3.90
2018-01-17T20:45:34.278Z,4.35
2018-01-17T20:48:04.278Z,3.47
2018-01-17T20:50:34.060Z,3.53
2018-01-17T20:53:04.834Z,3.33
2018-01-17T20:55:34.850Z,3.85
2018-01-17T20:58:06.074Z,4.15
2018-01-17T21:00:36.508Z,3.10
2018-01-17T21:03:06.277Z,4.00
2018-01-17T21:05:36.130Z,3.33
2018-01-17T21:08:10.288Z,3.60
2018-01-17T21:10:40.327Z,3.25
2018-01-17T21:13:10.932Z,3.35
2018-01-17T21:15:41.674Z,3.50
2018-01-17T21:18:11.488Z,2.47
2018-01-17T21:20:41.360Z,3.37
2018-01-17T21:23:11.990Z,3.83
2018-01-17T21:25:42.814Z,4.20
2018-01-17T21:28:12.994Z,2.62
2018-01-17T21:30:44.812Z,2.65
2018-01-17T21:33:16.305Z,3.20
2018-01-17T21:35:46.109Z,3.72
2018-01-17T21:38:15.903Z,3.75
2018-01-17T21:40:45.847Z,2.78
2018-01-17T21:43:21.921Z,2.08
2018-01-17T21:45:52.542Z,3.67
2018-01-17T21:48:22.858Z,3.55
2018-01-17T21:50:53.122Z,2.40
2018-01-17T21:53:21.999Z,3.12
2018-01-17T21:55:51.571Z,3.53
2018-01-17T21:58:22.322Z,3.35
2018-01-17T22:00:52.080Z,3.87
2018-01-17T22:03:22.002Z,2.95
2018-01-17T22:05:52.998Z,2.58
2018-01-17T22:08:24.852Z,3.00
2018-01-17T22:10:54.838Z,2.50
2018-01-17T22:13:25.106Z,3.40
2018-01-17T22:15:58.676Z,1.95
2018-01-17T22:18:35.727Z,3.42
2018-01-17T22:21:07.423Z,3.00
2018-01-17T22:23:37.581Z,2.75
2018-01-17T22:26:08.650Z,3.05
2018-01-17T22:28:38.609Z,3.05
2018-01-17T22:31:09.368Z,3.17
2018-01-17T22:33:41.094Z,3.08
2018-01-17T22:36:11.717Z,2.95
2018-01-17T22:38:40.139Z,3.37
2018-01-17T22:41:10.221Z,2.42
2018-01-17T22:43:40.715Z,3.80
2018-01-17T22:46:11.216Z,2.30
2018-01-17T22:48:43.129Z,2.45
2018-01-17T22:51:13.362Z,2.58
2018-01-17T22:53:44.415Z,2.50
2018-01-17T22:56:14.296Z,2.30
2018-01-17T22:58:44.456Z,2.37
2018-01-17T23:01:14.156Z,2.15
2018-01-17T23:03:45.837Z,2.40
2018-01-17T23:06:15.580Z,2.22
2018-01-17T23:08:47.413Z,2.75
2018-01-17T23:11:17.513Z,2.40
2018-01-17T23:13:47.201Z,2.45
2018-01-17T23:16:17.603Z,1.87
2018-01-17T23:18:47.239Z,2.33
2018-01-17T23:21:16.702Z,2.80
2018-01-17T23:23:46.545Z,2.12
2018-01-17T23:26:16.604Z,2.85
2018-01-17T23:28:47.409Z,2.42
2018-01-17T23:31:19.429Z,2.95
2018-01-17T23:33:50.395Z,2.50
2018-01-17T23:36:20.937Z,2.83
2018-01-17T23:38:51.945Z,3.10
2018-01-17T23:41:22.256Z,2.80
2018-01-17T23:43:56.058Z,3.08
2018-01-17T23:46:27.087Z,3.03
2018-01-17T23:48:56.999Z,2.90
2018-01-17T23:51:31.426Z,3.00
2018-01-17T23:54:01.095Z,3.10
2018-01-17T23:56:33.093Z,2.45
2018-01-17T23:59:04.414Z,7.28
